Pagrindinis puslapis
METAR-TAF:

METAR-TAF

Oro uostai :

Kitakiūšiū, Japonija

platuma: 33-50N, ilguma: 130-57E, Aukštis: 3 m

Dabartinis oras

Ataskaita buvo paskelbta 56 minutes, ne 00:00 UTC
Vėjas 11 kt iš Rytų/Šiaurės Rytų
Temperatūra 11°C
Drėgmė 54%
Slėgis 1029 hPa
Matomumas 10 km arba daugiau
Mažai debesys ne aukštis 3500 ft
Išsisklaidę debesys ne aukštis 5000 ft

METAR: RJFR 150000Z 06011KT 9999 FEW035 SCT050 11/02 Q1029

Laikas: 09:56 (00:56 UTC)

Prognozė

Ataskaita buvo paskelbta 1 valandą ir 45 minutes, ne 23:11 UTC
Prognozė galioja nuo 15 metu 00 UTC su 16 metu 06 UTC
Vėjas 8 kt iš Rytų/Šiaurės Rytų
Matomumas 10 km arba daugiau
Mažai debesys ne aukštis 2500 ft
Tapsmas
nuo 15 metu 01 UTC su 15 metu 03 UTC
Vėjas 7 kt iš Rytų

TAF: RJFR 142311Z 1500/1606 07008KT 9999 FEW025 BECMG 1501/1503 10007KT

Orai ataskaitas ir orų prognozės (METAR, TAF).

turimą stotys yra geltonos ir raudonos taškus žemėlapyje.

Perkelti pele per norėdami pamatyti stoties vardą.

Tada spustelėkite, norėdami matyti oro stebėjimo ir prognozės.

Norėdami pakeisti žemėlapį: spustelėkite ant žalios mygtukų su juodo kryžiaus žemyn,; žalią mygtuką su brūkšneliu, jei norite nutolinti; arba žalių rodyklių gretimoms žemėlapius.


METAR-TAF: